createdAt,value
2022-12-17T01:51:51.451Z,25.77
2022-12-17T01:54:37.962Z,27.85
2022-12-17T01:57:26.075Z,27.50
2022-12-17T02:00:19.154Z,27.20
2022-12-17T02:03:05.343Z,26.15
2022-12-17T02:06:14.687Z,28.58
2022-12-17T02:09:28.251Z,25.80
2022-12-17T02:12:30.086Z,26.75
2022-12-17T02:15:54.703Z,23.02
2022-12-17T02:18:48.258Z,22.77
2022-12-17T02:21:38.381Z,21.67
2022-12-17T02:24:38.520Z,22.80
2022-12-17T02:27:28.200Z,21.83
2022-12-17T02:30:22.220Z,20.33
2022-12-17T02:33:10.201Z,21.30
2022-12-17T02:36:17.960Z,20.08
2022-12-17T02:39:04.085Z,20.67
2022-12-17T02:41:57.361Z,19.33
2022-12-17T02:44:48.037Z,19.40
2022-12-17T02:47:35.845Z,18.95
2022-12-17T02:50:28.612Z,20.45
2022-12-17T02:53:18.277Z,20.05
2022-12-17T02:56:05.039Z,19.75
2022-12-17T02:58:54.055Z,21.38
2022-12-17T03:01:40.543Z,22.40
2022-12-17T03:04:26.758Z,23.42
2022-12-17T03:07:15.349Z,26.27
2022-12-17T03:10:02.060Z,24.05
2022-12-17T03:12:51.490Z,25.67
2022-12-17T03:15:37.474Z,24.42
2022-12-17T03:18:23.470Z,24.42
2022-12-17T03:21:12.365Z,24.73
2022-12-17T03:23:58.432Z,24.13
2022-12-17T03:26:44.483Z,24.77
2022-12-17T03:29:30.632Z,24.45
2022-12-17T03:32:16.638Z,23.63
2022-12-17T03:35:02.649Z,25.00
2022-12-17T03:37:48.587Z,23.63
2022-12-17T03:40:35.254Z,22.77
2022-12-17T03:43:28.519Z,21.38
2022-12-17T03:46:18.687Z,21.48
2022-12-17T03:49:04.882Z,22.35
2022-12-17T03:51:50.891Z,21.88
2022-12-17T03:54:38.196Z,21.05
2022-12-17T03:57:24.242Z,21.45
2022-12-17T04:00:10.208Z,20.70
2022-12-17T04:02:59.155Z,19.55
2022-12-17T04:05:45.374Z,17.60
2022-12-17T04:08:34.402Z,19.05
2022-12-17T04:11:20.957Z,19.08
2022-12-17T04:14:07.021Z,16.02
2022-12-17T04:16:52.985Z,15.65
2022-12-17T04:19:39.084Z,15.68
2022-12-17T04:22:25.388Z,16.40
2022-12-17T04:25:11.329Z,15.63
2022-12-17T04:27:57.182Z,15.05
2022-12-17T04:30:46.041Z,14.50
2022-12-17T04:33:32.011Z,13.45
2022-12-17T04:36:18.106Z,13.80
2022-12-17T04:39:04.231Z,13.18
2022-12-17T04:41:50.349Z,14.75
2022-12-17T04:44:36.510Z,14.73
2022-12-17T04:47:22.544Z,13.25
2022-12-17T04:50:08.675Z,14.75
2022-12-17T04:52:54.765Z,13.38
2022-12-17T04:55:40.670Z,14.40
2022-12-17T04:58:26.691Z,15.57
2022-12-17T05:01:14.394Z,15.13
2022-12-17T05:04:00.525Z,16.60
2022-12-17T05:06:46.774Z,14.32
2022-12-17T05:09:36.704Z,15.25
2022-12-17T05:12:32.622Z,14.93
2022-12-17T05:15:18.725Z,15.55
2022-12-17T05:18:04.741Z,15.35
2022-12-17T05:20:50.574Z,13.90
2022-12-17T05:23:38.671Z,13.52
2022-12-17T05:26:37.042Z,12.70
2022-12-17T05:29:23.152Z,11.50
2022-12-17T05:32:09.927Z,10.40
2022-12-17T05:34:55.872Z,12.38
2022-12-17T05:37:44.598Z,11.38
2022-12-17T05:40:32.145Z,11.57
2022-12-17T05:43:24.294Z,12.80
2022-12-17T05:46:13.316Z,12.57
2022-12-17T05:49:02.698Z,12.63
2022-12-17T05:51:49.606Z,12.30
2022-12-17T05:54:39.028Z,13.25
2022-12-17T05:57:35.825Z,14.25
2022-12-17T06:00:22.601Z,13.90
2022-12-17T06:03:16.934Z,11.68
2022-12-17T06:06:06.614Z,10.98
2022-12-17T06:08:52.998Z,11.98
2022-12-17T06:11:40.129Z,11.68
2022-12-17T06:14:26.583Z,11.88
2022-12-17T06:18:04.959Z,11.50
2022-12-17T06:21:05.752Z,11.18
2022-12-17T06:24:32.672Z,12.48
2022-12-17T06:27:29.532Z,12.90
2022-12-17T06:30:40.484Z,11.83
2022-12-17T06:33:44.010Z,12.65
2022-12-17T06:36:33.602Z,12.85
2022-12-17T06:39:20.554Z,12.27
2022-12-17T06:42:06.916Z,11.90
2022-12-17T06:44:53.206Z,10.98
2022-12-17T06:47:47.435Z,12.20
2022-12-17T06:50:33.710Z,12.23
2022-12-17T07:14:40.426Z,16.45
2022-12-17T07:22:01.046Z,16.85
2022-12-17T07:27:57.540Z,15.95
2022-12-17T07:35:41.868Z,14.77
2022-12-17T07:37:21.138Z,13.98
2022-12-17T08:07:02.834Z,21.50
2022-12-17T12:00:30.822Z,21.02
2022-12-17T12:22:36.545Z,18.20
2022-12-17T12:25:37.609Z,18.52
2022-12-17T12:28:49.713Z,19.20
2022-12-17T12:31:41.759Z,18.58
2022-12-17T12:34:32.666Z,18.02
2022-12-17T12:37:21.967Z,18.65
2022-12-17T12:40:21.010Z,17.48
2022-12-17T12:43:19.641Z,17.52
2022-12-17T12:46:16.734Z,17.42
2022-12-17T12:49:08.770Z,18.38
2022-12-17T12:51:56.327Z,18.90
2022-12-17T12:54:49.769Z,18.45
2022-12-17T12:57:51.360Z,17.63
2022-12-17T13:00:58.220Z,16.92
2022-12-17T13:03:52.009Z,17.40
2022-12-17T13:06:40.580Z,17.92
2022-12-17T13:09:18.108Z,16.33
2022-12-17T13:12:18.012Z,18.08
2022-12-17T13:14:54.851Z,15.98
2022-12-17T13:17:38.794Z,16.67
2022-12-17T13:20:30.398Z,17.40
2022-12-17T13:23:10.175Z,18.23
2022-12-17T13:25:38.346Z,17.45
2022-12-17T13:28:25.925Z,17.52
2022-12-17T13:31:03.821Z,17.42
2022-12-17T13:33:51.129Z,17.75
2022-12-17T13:36:33.813Z,15.90
2022-12-17T13:39:28.515Z,16.90
2022-12-17T13:41:56.584Z,18.08
2022-12-17T13:44:26.689Z,18.10
2022-12-17T13:46:54.737Z,18.50
2022-12-17T13:49:30.955Z,16.20
2022-12-17T13:52:11.782Z,15.43
2022-12-17T13:54:42.375Z,16.67
2022-12-17T13:57:14.418Z,16.20
2022-12-17T13:59:49.369Z,14.80
2022-12-17T14:02:30.474Z,16.30
2022-12-17T14:05:07.380Z,17.63
2022-12-17T14:07:39.197Z,18.42
2022-12-17T14:10:18.219Z,17.30
2022-12-17T14:12:47.357Z,13.80
2022-12-17T14:15:28.339Z,14.25
2022-12-17T14:17:56.896Z,14.98
2022-12-17T14:20:26.739Z,15.20
2022-12-17T14:22:56.388Z,13.80
2022-12-17T14:25:32.272Z,16.23
2022-12-17T14:28:35.133Z,13.57
2022-12-17T14:31:26.807Z,13.90
2022-12-17T14:34:08.366Z,12.65
2022-12-17T14:36:38.573Z,13.90
2022-12-17T14:39:24.094Z,13.07
2022-12-17T14:42:10.964Z,14.25
2022-12-17T14:44:51.364Z,12.93
2022-12-17T14:47:26.667Z,12.98
2022-12-17T14:49:58.710Z,13.20
2022-12-17T14:52:46.311Z,14.55
2022-12-17T14:55:27.721Z,13.63
2022-12-17T14:58:14.160Z,15.40
2022-12-17T15:00:43.296Z,13.52
2022-12-17T15:03:19.915Z,13.60
2022-12-17T15:05:52.542Z,13.70
2022-12-17T15:08:20.902Z,14.57
2022-12-17T15:10:48.656Z,13.77
2022-12-17T15:13:16.215Z,14.68
2022-12-17T15:15:44.971Z,14.18
2022-12-17T15:18:15.193Z,14.52
2022-12-17T15:20:43.524Z,14.20
2022-12-17T15:23:17.937Z,13.02
2022-12-17T15:25:47.530Z,15.15
2022-12-17T15:28:15.996Z,14.88
2022-12-17T15:30:44.249Z,15.63
2022-12-17T15:33:12.052Z,15.43
2022-12-17T15:35:40.165Z,15.27
2022-12-17T15:38:08.213Z,14.95
2022-12-17T15:40:39.274Z,15.85
2022-12-17T15:43:11.660Z,15.73
2022-12-17T15:45:40.138Z,16.77
2022-12-17T15:48:10.078Z,14.70
2022-12-17T15:50:38.410Z,15.60
2022-12-17T15:53:06.266Z,14.10
2022-12-17T15:55:34.065Z,15.43
2022-12-17T15:58:01.808Z,13.60
2022-12-17T16:00:29.593Z,12.73
2022-12-17T16:03:02.496Z,13.55
2022-12-17T16:05:30.342Z,13.68
2022-12-17T16:08:02.221Z,12.70
2022-12-17T16:10:30.305Z,13.05
2022-12-17T16:12:58.366Z,12.85
2022-12-17T16:15:25.974Z,15.20
2022-12-17T16:17:53.722Z,16.88
2022-12-17T16:20:22.710Z,17.13
2022-12-17T16:22:50.321Z,16.30
2022-12-17T16:25:20.713Z,16.20
2022-12-17T16:27:48.215Z,16.23
2022-12-17T16:30:15.788Z,16.52
2022-12-17T16:32:43.284Z,16.33
2022-12-17T16:35:10.885Z,14.90
2022-12-17T16:37:38.386Z,16.85
2022-12-17T16:40:06.531Z,16.58
2022-12-17T16:42:36.595Z,16.58
2022-12-17T16:45:04.481Z,16.23
2022-12-17T16:47:32.561Z,16.92
